Time;durP1;ratioP1;P1;durP2;ratioP2;P2;SDS_P1;SDS_P2;PMS_P1;PMS_P2;Temp;Humidity;BMP_temperature;BMP_pressure;BME280_temperature;BME280_humidity;BME280_pressure;Samples;Min_cycle;Max_cycle;Signal;HPM_P1;HPM_P2
2024/01/14 00:00:10;;;;;;;115.03;108.30;;;2.60;99.90;;;;;;5063865;28;20028;-75
2024/01/14 00:02:38;;;;;;;95.95;89.85;;;2.60;99.90;;;;;;5088437;28;20051;-76
2024/01/14 00:05:05;;;;;;;87.53;81.53;;;2.60;99.90;;;;;;5056618;28;20071;-75
2024/01/14 00:07:31;;;;;;;67.65;63.58;;;2.70;99.90;;;;;;5079770;28;20040;-75
2024/01/14 00:09:58;;;;;;;101.10;95.13;;;2.70;99.90;;;;;;5076326;28;20397;-75
2024/01/14 00:12:25;;;;;;;108.32;101.70;;;2.70;99.90;;;;;;5063476;28;20044;-75
2024/01/14 00:14:50;;;;;;;82.50;76.50;;;2.60;99.90;;;;;;5057688;28;20068;-75
2024/01/14 00:17:16;;;;;;;302.40;281.03;;;2.60;99.90;;;;;;5073786;28;20056;-75
2024/01/14 00:19:43;;;;;;;213.23;198.30;;;2.70;99.90;;;;;;5063503;28;20040;-75
2024/01/14 00:22:09;;;;;;;194.25;182.30;;;2.80;99.90;;;;;;5082791;28;20039;-75
2024/01/14 00:24:34;;;;;;;321.80;297.83;;;3.00;99.90;;;;;;5079664;28;20040;-75
2024/01/14 00:27:00;;;;;;;436.00;401.07;;;3.20;99.90;;;;;;5069237;28;20028;-75
2024/01/14 00:29:26;;;;;;;482.17;443.57;;;3.50;99.90;;;;;;5063467;28;20154;-74
2024/01/14 00:31:52;;;;;;;346.73;322.50;;;3.60;99.90;;;;;;5072987;28;20043;-74
2024/01/14 00:34:18;;;;;;;302.88;282.25;;;3.70;99.90;;;;;;5080833;28;20035;-75
2024/01/14 00:36:44;;;;;;;344.67;320.40;;;3.70;99.90;;;;;;5078841;28;20116;-74
2024/01/14 00:39:10;;;;;;;295.07;274.50;;;3.70;99.90;;;;;;5057410;28;20028;-75
2024/01/14 00:41:36;;;;;;;215.80;202.70;;;3.70;99.90;;;;;;5061438;28;20041;-74
2024/01/14 00:44:02;;;;;;;170.20;160.60;;;3.70;99.90;;;;;;5076816;28;20078;-74
2024/01/14 00:46:28;;;;;;;152.18;143.32;;;3.70;99.90;;;;;;5059001;28;20071;-75
2024/01/14 00:48:53;;;;;;;201.43;188.97;;;3.70;99.90;;;;;;5079637;28;20490;-74
2024/01/14 00:51:19;;;;;;;296.33;275.90;;;3.70;99.90;;;;;;5067059;28;20043;-74
2024/01/14 00:53:45;;;;;;;279.00;260.73;;;3.70;99.90;;;;;;5083882;28;20623;-74
2024/01/14 00:56:12;;;;;;;177.20;165.40;;;3.70;99.90;;;;;;5084067;28;20286;-74
2024/01/14 00:58:38;;;;;;;327.25;305.02;;;3.70;99.90;;;;;;5061287;28;20044;-74
2024/01/14 01:01:04;;;;;;;263.60;246.55;;;3.60;99.90;;;;;;5079452;28;20076;-74
2024/01/14 01:03:30;;;;;;;200.70;188.83;;;3.60;99.90;;;;;;5074016;28;20442;-74
2024/01/14 01:05:55;;;;;;;215.63;202.23;;;3.60;99.90;;;;;;5057773;28;20402;-74
2024/01/14 01:08:21;;;;;;;312.13;289.77;;;3.50;99.90;;;;;;5080038;28;20131;-75
2024/01/14 01:10:48;;;;;;;298.67;276.48;;;3.50;99.90;;;;;;5084008;28;20040;-74
2024/01/14 01:13:14;;;;;;;147.50;138.50;;;3.40;99.90;;;;;;5081131;28;20052;-75
2024/01/14 01:15:40;;;;;;;206.77;194.17;;;3.40;99.90;;;;;;5071764;28;20040;-75
2024/01/14 01:18:06;;;;;;;183.87;172.63;;;3.30;99.90;;;;;;5080428;28;20279;-75
2024/01/14 01:20:32;;;;;;;109.97;103.40;;;3.10;99.90;;;;;;5077239;28;20520;-75
2024/01/14 01:22:57;;;;;;;122.63;115.77;;;3.00;99.90;;;;;;5081783;28;20039;-75
2024/01/14 01:25:23;;;;;;;118.30;110.80;;;2.90;99.90;;;;;;5086263;28;20043;-75
2024/01/14 01:27:49;;;;;;;174.03;163.47;;;2.80;99.90;;;;;;5075386;28;20035;-75
2024/01/14 01:30:14;;;;;;;215.67;201.93;;;2.70;99.90;;;;;;5088514;28;20036;-74
2024/01/14 01:32:40;;;;;;;139.80;130.80;;;2.80;99.90;;;;;;5075079;28;20047;-74
2024/01/14 01:35:06;;;;;;;155.33;145.80;;;2.80;99.90;;;;;;5073096;28;20478;-75
2024/01/14 01:37:32;;;;;;;169.45;158.38;;;2.80;99.90;;;;;;5073208;28;20089;-75
2024/01/14 01:39:57;;;;;;;331.33;307.63;;;2.70;99.90;;;;;;5088034;28;20040;-75
2024/01/14 01:42:23;;;;;;;239.70;223.90;;;2.70;99.90;;;;;;5081440;28;20041;-75
2024/01/14 01:44:49;;;;;;;211.53;197.80;;;2.80;99.90;;;;;;5059669;28;20379;-75
2024/01/14 01:47:16;;;;;;;111.90;105.87;;;2.80;99.90;;;;;;5080255;28;20072;-75
2024/01/14 01:49:43;;;;;;;148.70;139.43;;;2.80;99.90;;;;;;5069859;28;20039;-75
2024/01/14 01:52:10;;;;;;;96.38;90.68;;;2.70;99.90;;;;;;5058026;28;20081;-75
2024/01/14 01:54:38;;;;;;;150.02;140.75;;;2.70;99.90;;;;;;5081984;28;20135;-75
2024/01/14 01:57:04;;;;;;;92.72;86.75;;;2.60;99.90;;;;;;5079803;28;20410;-75
2024/01/14 01:59:31;;;;;;;153.80;144.52;;;2.50;99.90;;;;;;5079427;28;20040;-75
2024/01/14 02:01:58;;;;;;;109.32;103.03;;;2.50;99.90;;;;;;5082871;28;20379;-75
2024/01/14 02:04:25;;;;;;;130.23;122.25;;;2.50;99.90;;;;;;5079047;28;20563;-75
2024/01/14 02:06:51;;;;;;;162.88;152.70;;;2.50;99.90;;;;;;5080118;28;20040;-75
2024/01/14 02:09:17;;;;;;;169.43;158.40;;;2.50;99.90;;;;;;5080005;28;20516;-75
2024/01/14 02:11:43;;;;;;;91.03;84.78;;;2.50;99.90;;;;;;5061575;28;20397;-75
2024/01/14 02:14:08;;;;;;;114.60;107.07;;;2.50;99.90;;;;;;5086050;28;20084;-75
2024/01/14 02:16:34;;;;;;;154.03;144.40;;;2.50;99.90;;;;;;5081046;28;20049;-75
2024/01/14 02:19:01;;;;;;;98.93;92.40;;;2.50;99.90;;;;;;5071215;28;20040;-75
2024/01/14 02:21:36;;;;;;;73.63;68.28;;;2.60;99.90;;;;;;5080470;28;20406;-75
2024/01/14 02:24:30;;;;;;;99.72;93.10;;;2.60;99.90;;;;;;5066333;28;20097;-75
2024/01/14 02:26:56;;;;;;;121.32;113.65;;;2.60;99.90;;;;;;5076215;28;20123;-75
2024/01/14 02:29:22;;;;;;;161.82;151.13;;;2.60;99.90;;;;;;5068370;28;20075;-75
2024/01/14 02:31:47;;;;;;;186.43;175.23;;;2.60;99.90;;;;;;5063347;28;20144;-75
2024/01/14 02:34:14;;;;;;;156.50;146.30;;;2.60;99.90;;;;;;5079251;28;20135;-75
2024/01/14 02:36:40;;;;;;;176.57;166.05;;;2.60;99.90;;;;;;5061614;28;20032;-75
2024/01/14 02:39:06;;;;;;;94.57;88.57;;;2.60;99.90;;;;;;5062179;28;20145;-75
2024/01/14 02:41:35;;;;;;;109.90;102.63;;;2.50;99.90;;;;;;5079294;28;20080;-75
2024/01/14 02:44:01;;;;;;;116.30;109.07;;;2.50;99.90;;;;;;5063819;28;20367;-75
2024/01/14 02:46:28;;;;;;;64.45;60.00;;;2.40;99.90;;;;;;5073440;28;20041;-75
2024/01/14 02:48:54;;;;;;;60.60;56.85;;;2.30;99.90;;;;;;5078891;28;20123;-75
2024/01/14 02:51:20;;;;;;;47.27;42.93;;;2.20;99.90;;;;;;5065025;28;20126;-75
2024/01/14 02:53:45;;;;;;;95.80;89.20;;;2.10;99.90;;;;;;5086925;28;20078;-75
2024/01/14 02:56:11;;;;;;;50.03;46.07;;;2.00;99.90;;;;;;5081187;28;20562;-75
2024/01/14 02:58:38;;;;;;;68.03;62.85;;;2.00;99.90;;;;;;5090669;28;20032;-75
2024/01/14 03:01:03;;;;;;;69.20;64.20;;;1.90;99.90;;;;;;5085801;28;20046;-75
2024/01/14 03:03:29;;;;;;;76.57;70.87;;;1.90;99.90;;;;;;5068870;28;20040;-75
2024/01/14 03:05:55;;;;;;;75.95;70.43;;;1.80;99.90;;;;;;5082342;28;20548;-75
2024/01/14 03:08:21;;;;;;;48.47;44.93;;;1.80;99.90;;;;;;5076891;28;20036;-75
2024/01/14 03:10:47;;;;;;;45.17;41.40;;;1.70;99.90;;;;;;5079980;28;20032;-75
2024/01/14 03:13:15;;;;;;;49.37;45.23;;;1.60;99.90;;;;;;5057949;28;20037;-75
2024/01/14 03:15:42;;;;;;;43.60;39.75;;;1.60;99.90;;;;;;5069742;28;20043;-75
2024/01/14 03:18:08;;;;;;;58.63;53.95;;;1.50;99.90;;;;;;5076174;28;20048;-75
2024/01/14 03:20:34;;;;;;;41.97;38.47;;;1.50;99.90;;;;;;5057376;28;20047;-75
2024/01/14 03:22:59;;;;;;;52.63;48.25;;;1.50;99.90;;;;;;5085638;28;20043;-75
2024/01/14 03:25:25;;;;;;;108.57;101.00;;;1.50;99.90;;;;;;5059403;28;20486;-75
2024/01/14 03:27:51;;;;;;;57.77;53.37;;;1.60;99.90;;;;;;5055760;28;20124;-75
2024/01/14 03:30:17;;;;;;;53.63;49.80;;;1.70;99.90;;;;;;5068449;28;20174;-75
2024/01/14 03:32:43;;;;;;;89.10;82.97;;;1.70;99.90;;;;;;5085478;28;20072;-75
2024/01/14 03:35:09;;;;;;;111.90;104.13;;;1.80;99.90;;;;;;5079704;28;20031;-75
2024/01/14 03:37:35;;;;;;;116.13;107.77;;;1.80;99.90;;;;;;5081418;28;20511;-75
2024/01/14 03:40:01;;;;;;;49.33;45.20;;;1.90;99.90;;;;;;5082656;28;20039;-75
2024/01/14 03:42:27;;;;;;;93.40;87.00;;;2.00;99.90;;;;;;5063131;28;20040;-75
2024/01/14 03:44:52;;;;;;;67.80;62.33;;;2.00;99.90;;;;;;5057770;28;20043;-76
2024/01/14 03:47:18;;;;;;;86.87;81.17;;;2.10;99.90;;;;;;5055321;28;20036;-76
2024/01/14 03:49:44;;;;;;;107.57;100.07;;;2.10;99.90;;;;;;5071255;28;20044;-75
2024/01/14 03:52:10;;;;;;;87.70;81.53;;;2.20;99.90;;;;;;5080478;28;20550;-75
2024/01/14 03:54:35;;;;;;;101.83;94.57;;;2.20;99.90;;;;;;5053866;28;20049;-75
2024/01/14 03:57:01;;;;;;;63.00;58.33;;;2.20;99.90;;;;;;5084124;28;20122;-75
2024/01/14 03:59:27;;;;;;;67.33;62.20;;;2.30;99.90;;;;;;5085979;28;20083;-75
2024/01/14 04:01:52;;;;;;;186.40;175.03;;;2.30;99.90;;;;;;5075176;28;20124;-75
2024/01/14 04:04:18;;;;;;;148.23;138.70;;;2.40;99.90;;;;;;5065160;28;20044;-74
2024/01/14 04:06:44;;;;;;;192.77;179.87;;;2.50;99.90;;;;;;5088736;28;20486;-75
2024/01/14 04:09:10;;;;;;;228.60;213.63;;;2.60;99.90;;;;;;5066203;28;20035;-74
2024/01/14 04:11:36;;;;;;;122.28;114.60;;;2.60;99.90;;;;;;5076919;28;20044;-74
2024/01/14 04:14:02;;;;;;;129.60;121.43;;;2.60;99.90;;;;;;5063505;28;20445;-74
2024/01/14 04:16:39;;;;;;;121.10;113.63;;;2.60;99.90;;;;;;5082857;28;20055;-75
2024/01/14 04:19:05;;;;;;;61.15;57.35;;;2.50;99.90;;;;;;5060736;28;20056;-74
2024/01/14 04:21:31;;;;;;;79.50;74.70;;;2.40;99.90;;;;;;5076978;28;20036;-75
2024/01/14 04:23:59;;;;;;;60.27;56.50;;;2.30;99.90;;;;;;5079912;28;20038;-75
2024/01/14 04:26:25;;;;;;;66.03;61.55;;;2.30;99.90;;;;;;5081640;28;20416;-75
2024/01/14 04:28:52;;;;;;;55.70;51.85;;;2.20;99.90;;;;;;5077936;28;20406;-74
2024/01/14 04:31:18;;;;;;;50.13;46.30;;;2.10;99.90;;;;;;5077409;28;20435;-74
2024/01/14 04:33:45;;;;;;;51.83;48.22;;;2.10;99.90;;;;;;5087099;28;20126;-75
2024/01/14 04:36:11;;;;;;;46.47;42.63;;;2.00;99.90;;;;;;5090288;28;20043;-75
2024/01/14 04:38:36;;;;;;;52.70;48.53;;;2.00;99.90;;;;;;5071531;28;20048;-74
2024/01/14 04:41:02;;;;;;;49.83;46.43;;;2.00;99.90;;;;;;5068667;28;20032;-75
2024/01/14 04:43:28;;;;;;;45.45;41.47;;;2.00;99.90;;;;;;5070058;28;20038;-75
2024/01/14 04:45:54;;;;;;;58.90;54.60;;;2.10;99.90;;;;;;5092982;28;20040;-75
2024/01/14 04:48:20;;;;;;;68.87;63.67;;;2.10;99.90;;;;;;5085243;28;20094;-75
2024/01/14 04:50:45;;;;;;;53.87;50.13;;;2.10;99.90;;;;;;5066434;28;20044;-74
2024/01/14 04:53:11;;;;;;;84.03;78.83;;;2.10;99.90;;;;;;5077042;28;20091;-74
2024/01/14 04:55:37;;;;;;;131.97;124.07;;;2.10;99.90;;;;;;5076107;28;20123;-74
2024/01/14 04:58:03;;;;;;;72.28;67.72;;;2.20;99.90;;;;;;5073020;28;20398;-74
2024/01/14 05:00:29;;;;;;;57.67;53.70;;;2.20;99.90;;;;;;5074567;28;20101;-74
2024/01/14 05:02:55;;;;;;;72.37;68.17;;;2.20;99.90;;;;;;5077011;28;20033;-74
2024/01/14 05:05:21;;;;;;;82.43;77.17;;;2.10;99.90;;;;;;5085738;28;20400;-75
2024/01/14 05:07:47;;;;;;;68.87;64.20;;;2.10;99.90;;;;;;5087246;28;20040;-75
2024/01/14 05:10:12;;;;;;;73.72;69.07;;;2.20;99.90;;;;;;5071445;28;20037;-75
2024/01/14 05:12:38;;;;;;;105.10;98.37;;;2.20;99.90;;;;;;5066212;28;20048;-75
2024/01/14 05:15:05;;;;;;;85.43;79.80;;;2.30;99.90;;;;;;5076203;28;20048;-75
2024/01/14 05:17:30;;;;;;;82.22;76.88;;;2.30;99.90;;;;;;5061700;28;20044;-75
2024/01/14 05:19:56;;;;;;;93.87;86.90;;;2.30;99.90;;;;;;5075113;28;20105;-75
2024/01/14 05:22:22;;;;;;;50.73;47.17;;;2.30;99.90;;;;;;5058495;28;20051;-75
2024/01/14 05:24:50;;;;;;;96.77;90.70;;;2.30;99.90;;;;;;5075738;28;20041;-75
2024/01/14 05:27:16;;;;;;;56.65;52.10;;;2.20;99.90;;;;;;5061938;28;20044;-75
2024/01/14 05:29:43;;;;;;;65.75;61.55;;;2.20;99.90;;;;;;5071910;28;20051;-75
2024/01/14 05:32:13;;;;;;;60.97;56.97;;;2.20;99.90;;;;;;5087535;28;20038;-75
2024/01/14 05:34:39;;;;;;;66.22;61.78;;;2.20;99.90;;;;;;5071316;28;20558;-74
2024/01/14 05:37:05;;;;;;;98.07;92.40;;;2.20;99.90;;;;;;5081797;28;20048;-75
2024/01/14 05:39:32;;;;;;;75.03;69.53;;;2.20;99.90;;;;;;5070921;28;20094;-75
2024/01/14 05:41:58;;;;;;;87.63;82.18;;;2.20;99.90;;;;;;5078923;28;20118;-75
2024/01/14 05:44:24;;;;;;;93.37;87.17;;;2.20;99.90;;;;;;5073646;28;20111;-75
2024/01/14 05:46:50;;;;;;;95.47;89.22;;;2.20;99.90;;;;;;5060648;28;20035;-75
2024/01/14 05:49:15;;;;;;;90.20;83.90;;;2.20;99.90;;;;;;5064012;28;20044;-75
2024/01/14 05:51:41;;;;;;;73.50;68.13;;;2.20;99.90;;;;;;5063587;28;20074;-74
2024/01/14 05:54:07;;;;;;;101.70;94.30;;;2.20;99.90;;;;;;5065330;28;20089;-75
2024/01/14 05:56:33;;;;;;;65.77;61.33;;;2.20;99.90;;;;;;5073743;28;20407;-75
2024/01/14 05:59:00;;;;;;;110.43;103.90;;;2.20;99.90;;;;;;5068957;28;20040;-75
2024/01/14 06:01:29;;;;;;;67.28;62.90;;;2.20;99.90;;;;;;5079270;28;20097;-75
2024/01/14 06:03:58;;;;;;;55.10;51.70;;;2.20;99.90;;;;;;5079197;28;20031;-75
2024/01/14 06:06:23;;;;;;;50.58;46.88;;;2.20;99.90;;;;;;5080183;28;20048;-75
2024/01/14 06:08:49;;;;;;;80.33;75.10;;;2.20;99.90;;;;;;5084980;28;20156;-75
2024/01/14 06:11:15;;;;;;;78.33;73.50;;;2.20;99.90;;;;;;5088124;28;20040;-75
2024/01/14 06:13:44;;;;;;;52.65;49.08;;;2.20;99.90;;;;;;5071258;28;20077;-75
2024/01/14 06:16:10;;;;;;;50.87;47.40;;;2.20;99.90;;;;;;5049675;28;1129122;-75
2024/01/14 06:18:36;;;;;;;57.63;53.65;;;2.20;99.90;;;;;;5058603;28;20745;-75
2024/01/14 06:21:02;;;;;;;59.97;55.17;;;2.10;99.90;;;;;;5074206;28;20083;-75
2024/01/14 06:23:29;;;;;;;87.90;82.07;;;2.20;99.90;;;;;;5076294;28;20068;-75
2024/01/14 06:25:55;;;;;;;70.20;64.95;;;2.20;99.90;;;;;;5084043;28;20282;-75
2024/01/14 06:28:21;;;;;;;63.15;58.88;;;2.20;99.90;;;;;;5071672;28;20417;-75
2024/01/14 06:30:46;;;;;;;49.33;45.50;;;2.20;99.90;;;;;;5087423;28;20064;-75
2024/01/14 06:33:12;;;;;;;49.67;46.00;;;2.20;99.90;;;;;;5061946;28;20039;-75
2024/01/14 06:35:38;;;;;;;57.13;53.43;;;2.20;99.90;;;;;;5087001;28;20078;-75
2024/01/14 06:38:04;;;;;;;76.23;71.17;;;2.20;99.90;;;;;;5084482;28;20047;-75
2024/01/14 06:40:30;;;;;;;92.30;86.17;;;2.10;99.90;;;;;;5081310;28;20045;-75
2024/01/14 06:42:56;;;;;;;85.07;78.93;;;2.10;99.90;;;;;;5085421;28;20455;-76
2024/01/14 06:45:21;;;;;;;67.07;62.97;;;2.10;99.90;;;;;;5076770;28;20131;-75
2024/01/14 06:47:47;;;;;;;100.57;94.23;;;2.10;99.90;;;;;;5079702;28;20632;-75
2024/01/14 06:50:13;;;;;;;87.07;81.03;;;2.10;99.90;;;;;;5059285;28;20043;-75
2024/01/14 06:52:39;;;;;;;71.63;66.70;;;2.10;99.90;;;;;;5081951;28;20123;-75
2024/01/14 06:55:05;;;;;;;67.13;62.75;;;2.10;99.90;;;;;;5054226;28;20178;-75
2024/01/14 06:57:32;;;;;;;119.57;112.55;;;2.10;99.90;;;;;;5073250;28;20047;-74
2024/01/14 07:00:04;;;;;;;108.32;101.47;;;2.10;99.90;;;;;;5060129;28;20044;-74
2024/01/14 07:02:30;;;;;;;72.78;67.25;;;2.10;99.90;;;;;;5073230;28;20032;-74
2024/01/14 07:04:56;;;;;;;48.20;44.75;;;2.10;99.90;;;;;;5080354;28;20047;-74
2024/01/14 07:07:22;;;;;;;89.60;83.80;;;2.20;99.90;;;;;;5055270;28;20040;-74
2024/01/14 07:09:48;;;;;;;77.63;72.20;;;2.10;99.90;;;;;;5076915;28;20468;-74
2024/01/14 07:12:14;;;;;;;71.67;67.17;;;2.10;99.90;;;;;;5079329;28;20056;-75
2024/01/14 07:14:39;;;;;;;58.93;55.07;;;2.10;99.90;;;;;;5058315;28;20040;-75
2024/01/14 07:17:05;;;;;;;72.90;68.20;;;2.10;99.90;;;;;;5079065;28;20485;-75
2024/01/14 07:19:31;;;;;;;53.73;49.57;;;2.10;99.90;;;;;;5073958;28;20556;-75
2024/01/14 07:21:57;;;;;;;62.93;58.20;;;2.00;99.90;;;;;;5054957;28;20036;-75
2024/01/14 07:24:22;;;;;;;63.20;59.60;;;2.00;99.90;;;;;;5058358;28;20040;-75
2024/01/14 07:26:48;;;;;;;94.77;88.73;;;2.00;99.90;;;;;;5075266;28;20040;-75
2024/01/14 07:29:14;;;;;;;68.03;63.03;;;1.90;99.90;;;;;;5087804;28;20044;-75
2024/01/14 07:31:39;;;;;;;73.33;69.00;;;1.90;99.90;;;;;;5071938;28;20119;-75
2024/01/14 07:34:06;;;;;;;90.47;84.47;;;1.90;99.90;;;;;;5066536;28;20051;-75
2024/01/14 07:36:32;;;;;;;131.60;123.63;;;1.90;99.90;;;;;;5083687;28;20047;-75
2024/01/14 07:38:58;;;;;;;59.60;55.03;;;1.90;99.90;;;;;;5079707;28;20040;-75
2024/01/14 07:41:24;;;;;;;109.25;102.15;;;1.90;99.90;;;;;;5062291;28;20028;-75
2024/01/14 07:43:50;;;;;;;124.35;116.88;;;1.90;99.90;;;;;;5057229;28;20036;-75
2024/01/14 07:46:16;;;;;;;107.13;100.00;;;1.90;99.90;;;;;;5076164;28;20490;-75
2024/01/14 07:48:42;;;;;;;89.93;83.97;;;1.80;99.90;;;;;;5058088;28;20195;-75
2024/01/14 07:51:08;;;;;;;91.78;85.68;;;1.80;99.90;;;;;;5075093;28;20051;-75
2024/01/14 07:53:34;;;;;;;128.47;120.30;;;1.80;99.90;;;;;;5055805;28;20494;-75
2024/01/14 07:56:01;;;;;;;73.70;69.55;;;1.80;99.90;;;;;;5058815;28;20036;-75
2024/01/14 07:58:27;;;;;;;150.02;140.88;;;1.80;99.90;;;;;;5077582;28;20045;-75
2024/01/14 08:00:53;;;;;;;61.13;56.93;;;1.80;99.90;;;;;;5081931;28;20043;-75
2024/01/14 08:03:19;;;;;;;92.25;86.10;;;1.70;99.90;;;;;;5063323;28;20040;-75
2024/01/14 08:05:45;;;;;;;94.50;88.63;;;1.70;99.90;;;;;;5060814;28;20058;-76
2024/01/14 08:08:10;;;;;;;107.43;100.97;;;1.70;99.90;;;;;;5067463;28;20044;-76
2024/01/14 08:10:36;;;;;;;52.53;48.90;;;1.70;99.90;;;;;;5078201;28;20728;-76
2024/01/14 08:13:02;;;;;;;86.83;81.40;;;1.70;99.90;;;;;;5082094;28;20123;-75
2024/01/14 08:15:28;;;;;;;64.13;60.13;;;1.80;99.90;;;;;;5064235;28;20560;-76
2024/01/14 08:17:54;;;;;;;105.20;99.47;;;1.80;99.90;;;;;;5072287;28;20064;-76
2024/01/14 08:20:19;;;;;;;85.60;80.53;;;1.90;99.90;;;;;;5071482;28;20040;-75
2024/01/14 08:22:45;;;;;;;66.33;62.50;;;1.90;99.90;;;;;;5078063;28;20039;-75
2024/01/14 08:25:11;;;;;;;69.50;65.43;;;2.00;99.90;;;;;;5079662;28;20417;-75
2024/01/14 08:27:40;;;;;;;65.33;61.00;;;2.00;99.90;;;;;;5073914;28;20492;-75
2024/01/14 08:30:07;;;;;;;101.78;95.97;;;2.10;99.90;;;;;;5088158;28;20051;-75
2024/01/14 08:32:33;;;;;;;86.68;81.20;;;2.10;99.90;;;;;;5071106;28;20044;-76
2024/01/14 08:34:58;;;;;;;138.90;131.05;;;2.10;99.90;;;;;;5067242;28;20040;-76
2024/01/14 08:37:29;;;;;;;119.60;112.77;;;2.20;99.90;;;;;;5067525;28;20105;-76
2024/01/14 08:39:55;;;;;;;123.40;115.93;;;2.20;99.90;;;;;;5059923;28;20094;-76
2024/01/14 08:42:20;;;;;;;137.83;129.13;;;2.20;99.90;;;;;;5075033;28;20028;-76
2024/01/14 08:44:47;;;;;;;173.63;162.93;;;2.20;99.90;;;;;;5082090;28;20036;-76
2024/01/14 08:47:13;;;;;;;88.22;82.63;;;2.20;99.90;;;;;;5073997;28;20040;-76
2024/01/14 08:49:42;;;;;;;119.30;112.47;;;2.10;99.90;;;;;;5058793;28;20036;-75
2024/01/14 08:52:08;;;;;;;96.63;91.18;;;2.10;99.90;;;;;;5075282;28;20051;-75
2024/01/14 08:54:37;;;;;;;115.97;109.32;;;2.10;99.90;;;;;;5063120;28;20040;-75
2024/01/14 08:57:03;;;;;;;145.18;135.48;;;2.10;99.90;;;;;;5058421;28;20417;-75
2024/01/14 08:59:29;;;;;;;92.23;86.37;;;2.20;99.90;;;;;;5077128;28;20058;-75
2024/01/14 09:01:55;;;;;;;115.77;109.63;;;2.20;99.90;;;;;;5077790;28;20047;-76
2024/01/14 09:04:20;;;;;;;74.33;69.67;;;2.30;99.90;;;;;;5056470;28;20324;-75
2024/01/14 09:06:46;;;;;;;109.53;103.23;;;2.40;99.90;;;;;;5056668;28;20036;-76
2024/01/14 09:09:12;;;;;;;189.97;178.20;;;2.50;99.90;;;;;;5082996;28;20443;-75
2024/01/14 09:11:38;;;;;;;167.07;157.02;;;2.60;99.90;;;;;;5082796;28;20039;-76
2024/01/14 09:14:05;;;;;;;114.00;107.70;;;2.60;99.90;;;;;;5066562;28;20045;-75
2024/01/14 09:16:30;;;;;;;129.23;121.32;;;2.70;99.90;;;;;;5061976;28;20091;-75
2024/01/14 09:18:56;;;;;;;142.83;134.93;;;2.70;99.90;;;;;;5061452;28;20052;-75
2024/01/14 09:21:22;;;;;;;132.90;125.50;;;2.70;99.90;;;;;;5077254;28;20036;-75
2024/01/14 09:23:48;;;;;;;126.80;119.87;;;2.80;99.90;;;;;;5057420;28;20044;-76
2024/01/14 09:26:13;;;;;;;206.60;192.23;;;2.80;99.90;;;;;;5077911;28;20513;-75
2024/01/14 09:28:39;;;;;;;209.43;196.70;;;2.80;99.90;;;;;;5060186;28;20062;-75
2024/01/14 09:31:06;;;;;;;138.53;130.53;;;2.80;99.90;;;;;;5056184;28;20036;-75
2024/01/14 09:33:32;;;;;;;220.50;207.15;;;2.90;99.90;;;;;;5076952;28;20032;-75
2024/01/14 09:36:09;;;;;;;174.77;164.40;;;2.90;99.90;;;;;;5072728;28;20383;-75
2024/01/14 09:38:35;;;;;;;217.85;202.88;;;2.90;99.90;;;;;;5059331;28;20037;-75
2024/01/14 09:41:34;;;;;;;248.45;231.18;;;3.00;99.90;;;;;;5055117;28;20127;-75
2024/01/14 09:44:01;;;;;;;170.55;160.25;;;3.00;99.90;;;;;;5064117;28;20039;-75
2024/01/14 09:46:27;;;;;;;125.63;118.18;;;3.00;99.90;;;;;;5075133;28;20090;-75
2024/01/14 09:48:55;;;;;;;256.08;239.88;;;3.10;99.90;;;;;;5078125;28;20511;-75
2024/01/14 09:51:27;;;;;;;206.43;193.80;;;3.20;99.90;;;;;;5074375;28;20036;-75
2024/01/14 09:53:53;;;;;;;201.45;188.25;;;3.20;99.90;;;;;;5071081;28;20047;-75
2024/01/14 09:56:19;;;;;;;199.20;187.23;;;3.20;99.90;;;;;;5075275;28;20071;-75
2024/01/14 09:58:46;;;;;;;287.48;268.27;;;3.30;99.90;;;;;;5072273;28;20046;-75
2024/01/14 10:01:20;;;;;;;252.75;236.98;;;3.30;99.90;;;;;;5055240;28;20040;-75
2024/01/14 10:03:46;;;;;;;324.23;301.27;;;3.40;99.90;;;;;;5073155;28;20044;-75
2024/01/14 10:06:13;;;;;;;201.13;188.17;;;3.40;99.90;;;;;;5072901;28;20189;-75
2024/01/14 10:08:38;;;;;;;145.45;136.65;;;3.50;99.90;;;;;;5082290;28;20077;-75
2024/01/14 10:11:05;;;;;;;143.93;135.13;;;3.50;99.90;;;;;;5058209;28;20033;-75
2024/01/14 10:13:31;;;;;;;231.23;217.23;;;3.50;99.90;;;;;;5071356;28;20402;-75
2024/01/14 10:15:58;;;;;;;183.13;171.65;;;3.60;99.90;;;;;;5055408;28;20044;-76
2024/01/14 10:18:24;;;;;;;160.38;150.52;;;3.60;99.90;;;;;;5068561;28;20060;-75
2024/01/14 10:20:50;;;;;;;195.67;183.13;;;3.70;99.90;;;;;;5070936;28;20033;-75
2024/01/14 10:23:16;;;;;;;181.18;170.30;;;3.70;99.90;;;;;;5058033;28;20067;-75
2024/01/14 10:25:42;;;;;;;145.57;137.00;;;3.70;99.90;;;;;;5078020;28;20119;-75
2024/01/14 10:28:08;;;;;;;196.73;183.93;;;3.70;99.90;;;;;;5082622;28;20127;-75
2024/01/14 10:30:34;;;;;;;168.07;157.77;;;3.70;99.90;;;;;;5073810;28;20075;-75
2024/01/14 10:33:02;;;;;;;167.90;157.57;;;3.70;99.90;;;;;;5073367;28;20041;-75
2024/01/14 10:35:28;;;;;;;132.10;124.32;;;3.70;99.90;;;;;;5059048;28;20040;-74
2024/01/14 10:37:54;;;;;;;159.57;149.67;;;3.70;99.90;;;;;;5072171;28;20059;-75
2024/01/14 10:40:20;;;;;;;145.00;136.10;;;3.70;99.90;;;;;;5080010;28;20402;-75
2024/01/14 10:42:46;;;;;;;132.45;124.32;;;3.60;99.90;;;;;;5053500;28;20119;-75
2024/01/14 10:45:11;;;;;;;126.23;118.67;;;3.60;99.90;;;;;;5072091;28;20119;-75
2024/01/14 10:47:41;;;;;;;226.50;211.10;;;3.60;99.90;;;;;;5083792;28;20047;-75
2024/01/14 10:50:09;;;;;;;141.52;133.35;;;3.60;99.90;;;;;;5070500;28;20573;-76
2024/01/14 10:52:39;;;;;;;161.20;151.10;;;3.60;99.90;;;;;;5079687;28;20056;-76
2024/01/14 10:55:27;;;;;;;203.98;191.18;;;3.50;99.90;;;;;;5066077;28;20149;-75
2024/01/14 10:57:54;;;;;;;110.90;104.75;;;3.50;99.90;;;;;;5088812;28;20120;-75
2024/01/14 11:00:20;;;;;;;153.80;144.63;;;3.60;99.90;;;;;;5079282;28;20044;-76
2024/01/14 11:02:46;;;;;;;157.53;148.80;;;3.60;99.90;;;;;;5074044;28;20092;-76
2024/01/14 11:05:12;;;;;;;232.25;218.23;;;3.60;99.90;;;;;;5071712;28;20543;-75
2024/01/14 11:07:38;;;;;;;144.00;136.07;;;3.60;99.90;;;;;;5075437;28;20036;-76
2024/01/14 11:10:07;;;;;;;196.47;185.30;;;3.60;99.90;;;;;;5057140;28;20048;-76
2024/01/14 11:12:55;;;;;;;228.65;215.35;;;3.60;99.90;;;;;;5077378;28;20339;-75
2024/01/14 11:15:48;;;;;;;189.70;178.85;;;3.70;99.90;;;;;;5081466;28;20139;-76
2024/01/14 11:18:24;;;;;;;114.53;108.15;;;3.60;99.90;;;;;;5037335;28;20521;-75
2024/01/14 11:21:00;;;;;;;201.07;188.73;;;3.60;99.90;;;;;;5061149;28;20479;-76
2024/01/14 11:23:26;;;;;;;170.80;160.48;;;3.70;99.90;;;;;;5083431;28;20055;-76
2024/01/14 11:25:54;;;;;;;104.00;98.33;;;3.80;99.90;;;;;;5078436;28;20347;-75
2024/01/14 11:28:20;;;;;;;170.93;160.73;;;3.90;99.90;;;;;;5069264;28;20093;-76
2024/01/14 11:30:55;;;;;;;248.40;231.60;;;4.00;99.90;;;;;;5066534;28;20036;-75
2024/01/14 11:33:46;;;;;;;152.73;144.00;;;4.00;99.90;;;;;;5077069;28;20072;-76
2024/01/14 11:36:12;;;;;;;178.35;168.65;;;4.00;99.90;;;;;;5073595;28;20044;-75
2024/01/14 11:38:55;;;;;;;140.20;131.95;;;4.00;99.90;;;;;;5074515;28;20032;-76
2024/01/14 11:41:28;;;;;;;191.73;180.57;;;4.10;99.90;;;;;;5075249;28;20076;-75
2024/01/14 11:43:57;;;;;;;146.30;138.13;;;4.20;99.90;;;;;;5057348;28;20417;-75
2024/01/14 11:46:42;;;;;;;191.93;179.95;;;4.20;99.90;;;;;;5054257;28;20094;-75
2024/01/14 11:49:09;;;;;;;;;;;4.20;99.90;;;;;;5054673;28;20043;-76
2024/01/14 11:51:43;;;;;;;111.82;105.47;;;4.10;99.90;;;;;;5059668;28;19927;-76
2024/01/14 11:54:12;;;;;;;185.32;174.07;;;4.00;99.90;;;;;;5063256;28;20071;-75
2024/01/14 11:56:39;;;;;;;139.90;132.15;;;4.00;99.90;;;;;;5054758;28;20566;-75
2024/01/14 11:59:13;;;;;;;128.55;121.10;;;4.00;99.90;;;;;;5072734;28;20128;-75
2024/01/14 12:01:39;;;;;;;184.93;174.63;;;3.90;99.90;;;;;;5073320;28;20410;-76
2024/01/14 12:04:09;;;;;;;120.78;114.00;;;3.90;99.90;;;;;;5071094;28;20044;-75
2024/01/14 12:06:43;;;;;;;259.70;244.23;;;3.90;99.90;;;;;;5071558;28;20028;-75
2024/01/14 12:09:11;;;;;;;130.70;123.57;;;3.90;99.90;;;;;;5075933;28;20146;-76
2024/01/14 12:11:38;;;;;;;170.20;159.77;;;3.90;99.90;;;;;;5064016;28;20037;-76
2024/01/14 12:14:04;;;;;;;204.82;192.27;;;3.90;99.90;;;;;;5086426;28;20090;-76
2024/01/14 12:16:34;;;;;;;230.77;215.27;;;3.90;99.90;;;;;;5075803;28;20052;-76
2024/01/14 12:19:00;;;;;;;313.73;288.92;;;4.00;99.90;;;;;;5087134;28;20127;-76
2024/01/14 12:21:29;;;;;;;208.35;196.40;;;4.10;99.90;;;;;;5068864;28;20063;-76
2024/01/14 12:23:55;;;;;;;156.40;146.80;;;4.20;99.90;;;;;;5080501;28;20497;-76